sensor_id;sensor_type;location;lat;lon;timestamp;temperature;humidity
43906;DHT22;29564;46.622;13.818;2022-07-23T00:00:26;26.50;61.50
43906;DHT22;29564;46.622;13.818;2022-07-23T00:01:27;26.50;61.70
43906;DHT22;29564;46.622;13.818;2022-07-23T00:02:29;26.40;62.00
43906;DHT22;29564;46.622;13.818;2022-07-23T00:03:30;26.30;61.90
43906;DHT22;29564;46.622;13.818;2022-07-23T00:04:31;26.30;61.30
43906;DHT22;29564;46.622;13.818;2022-07-23T00:05:32;26.20;63.80
43906;DHT22;29564;46.622;13.818;2022-07-23T00:06:33;26.20;62.30
43906;DHT22;29564;46.622;13.818;2022-07-23T00:07:34;26.20;62.40
43906;DHT22;29564;46.622;13.818;2022-07-23T00:08:35;26.20;61.90
43906;DHT22;29564;46.622;13.818;2022-07-23T00:09:36;26.20;61.90
43906;DHT22;29564;46.622;13.818;2022-07-23T00:10:36;26.10;62.30
43906;DHT22;29564;46.622;13.818;2022-07-23T00:11:37;26.00;64.00
43906;DHT22;29564;46.622;13.818;2022-07-23T00:12:39;26.00;64.80
43906;DHT22;29564;46.622;13.818;2022-07-23T00:13:40;26.10;65.10
43906;DHT22;29564;46.622;13.818;2022-07-23T00:14:41;26.20;62.40
43906;DHT22;29564;46.622;13.818;2022-07-23T00:15:42;26.30;65.10
43906;DHT22;29564;46.622;13.818;2022-07-23T00:16:43;26.30;62.20
43906;DHT22;29564;46.622;13.818;2022-07-23T00:17:44;26.20;61.00
43906;DHT22;29564;46.622;13.818;2022-07-23T00:18:45;26.10;63.50
43906;DHT22;29564;46.622;13.818;2022-07-23T00:19:46;26.10;63.60
43906;DHT22;29564;46.622;13.818;2022-07-23T00:20:47;26.10;62.60
43906;DHT22;29564;46.622;13.818;2022-07-23T00:21:48;26.00;61.80
43906;DHT22;29564;46.622;13.818;2022-07-23T00:22:53;26.00;62.10
43906;DHT22;29564;46.622;13.818;2022-07-23T00:23:54;26.00;62.50
43906;DHT22;29564;46.622;13.818;2022-07-23T00:24:55;26.00;62.20
43906;DHT22;29564;46.622;13.818;2022-07-23T00:25:56;25.90;62.20
43906;DHT22;29564;46.622;13.818;2022-07-23T00:26:58;25.60;62.60
43906;DHT22;29564;46.622;13.818;2022-07-23T00:27:59;25.60;63.40
43906;DHT22;29564;46.622;13.818;2022-07-23T00:29:00;25.70;63.20
43906;DHT22;29564;46.622;13.818;2022-07-23T00:30:01;25.70;63.80
43906;DHT22;29564;46.622;13.818;2022-07-23T00:31:02;25.80;63.50
43906;DHT22;29564;46.622;13.818;2022-07-23T00:32:03;25.90;65.40
43906;DHT22;29564;46.622;13.818;2022-07-23T00:33:05;25.90;63.70
43906;DHT22;29564;46.622;13.818;2022-07-23T00:34:06;25.90;63.70
43906;DHT22;29564;46.622;13.818;2022-07-23T00:35:07;25.90;63.70
43906;DHT22;29564;46.622;13.818;2022-07-23T00:36:08;25.90;62.40
43906;DHT22;29564;46.622;13.818;2022-07-23T00:37:09;25.80;64.10
43906;DHT22;29564;46.622;13.818;2022-07-23T00:38:10;25.70;63.80
43906;DHT22;29564;46.622;13.818;2022-07-23T00:39:11;25.80;64.60
43906;DHT22;29564;46.622;13.818;2022-07-23T00:40:12;25.80;65.10
43906;DHT22;29564;46.622;13.818;2022-07-23T00:41:13;25.80;64.10
43906;DHT22;29564;46.622;13.818;2022-07-23T00:42:14;25.80;64.30
43906;DHT22;29564;46.622;13.818;2022-07-23T00:43:15;25.80;64.70
43906;DHT22;29564;46.622;13.818;2022-07-23T00:44:17;25.70;63.30
43906;DHT22;29564;46.622;13.818;2022-07-23T00:45:18;25.50;63.70
43906;DHT22;29564;46.622;13.818;2022-07-23T00:46:20;25.40;65.20
43906;DHT22;29564;46.622;13.818;2022-07-23T00:47:21;25.50;67.30
43906;DHT22;29564;46.622;13.818;2022-07-23T00:48:22;25.60;68.00
43906;DHT22;29564;46.622;13.818;2022-07-23T00:49:23;25.70;66.40
43906;DHT22;29564;46.622;13.818;2022-07-23T00:50:25;25.70;64.40
43906;DHT22;29564;46.622;13.818;2022-07-23T00:51:26;25.60;66.60
43906;DHT22;29564;46.622;13.818;2022-07-23T00:52:27;25.60;65.20
43906;DHT22;29564;46.622;13.818;2022-07-23T00:53:28;25.60;65.40
43906;DHT22;29564;46.622;13.818;2022-07-23T00:54:29;25.50;65.30
43906;DHT22;29564;46.622;13.818;2022-07-23T00:55:30;25.40;64.70
43906;DHT22;29564;46.622;13.818;2022-07-23T00:56:31;25.30;64.60
43906;DHT22;29564;46.622;13.818;2022-07-23T00:57:32;25.40;67.10
43906;DHT22;29564;46.622;13.818;2022-07-23T00:58:34;25.40;65.40
43906;DHT22;29564;46.622;13.818;2022-07-23T00:59:37;25.40;67.60
43906;DHT22;29564;46.622;13.818;2022-07-23T01:00:38;25.30;66.30
43906;DHT22;29564;46.622;13.818;2022-07-23T01:01:40;25.20;66.20
43906;DHT22;29564;46.622;13.818;2022-07-23T01:02:41;25.20;66.10
43906;DHT22;29564;46.622;13.818;2022-07-23T01:03:42;25.30;67.10
43906;DHT22;29564;46.622;13.818;2022-07-23T01:04:43;25.30;65.20
43906;DHT22;29564;46.622;13.818;2022-07-23T01:05:44;25.20;66.60
43906;DHT22;29564;46.622;13.818;2022-07-23T01:06:45;25.30;67.40
43906;DHT22;29564;46.622;13.818;2022-07-23T01:07:46;25.30;66.50
43906;DHT22;29564;46.622;13.818;2022-07-23T01:08:47;25.20;67.10
43906;DHT22;29564;46.622;13.818;2022-07-23T01:09:49;25.10;66.50
43906;DHT22;29564;46.622;13.818;2022-07-23T01:10:50;25.00;67.90
43906;DHT22;29564;46.622;13.818;2022-07-23T01:11:51;25.00;67.10
43906;DHT22;29564;46.622;13.818;2022-07-23T01:12:55;25.00;67.40
43906;DHT22;29564;46.622;13.818;2022-07-23T01:13:56;24.80;66.50
43906;DHT22;29564;46.622;13.818;2022-07-23T01:14:57;24.50;67.90
43906;DHT22;29564;46.622;13.818;2022-07-23T01:15:59;24.50;68.20
43906;DHT22;29564;46.622;13.818;2022-07-23T01:17:00;24.50;68.50
43906;DHT22;29564;46.622;13.818;2022-07-23T01:18:01;24.40;69.90
43906;DHT22;29564;46.622;13.818;2022-07-23T01:19:02;24.60;68.80
43906;DHT22;29564;46.622;13.818;2022-07-23T01:20:07;24.60;68.50
43906;DHT22;29564;46.622;13.818;2022-07-23T01:21:08;24.50;68.20
43906;DHT22;29564;46.622;13.818;2022-07-23T01:22:13;24.20;69.10
43906;DHT22;29564;46.622;13.818;2022-07-23T01:23:15;24.10;69.20
43906;DHT22;29564;46.622;13.818;2022-07-23T01:24:16;24.00;70.50
43906;DHT22;29564;46.622;13.818;2022-07-23T01:25:19;24.20;71.60
43906;DHT22;29564;46.622;13.818;2022-07-23T01:26:20;24.40;70.80
43906;DHT22;29564;46.622;13.818;2022-07-23T01:27:21;24.80;68.80
43906;DHT22;29564;46.622;13.818;2022-07-23T01:28:22;24.80;70.30
43906;DHT22;29564;46.622;13.818;2022-07-23T01:29:23;24.90;69.30
43906;DHT22;29564;46.622;13.818;2022-07-23T01:30:24;24.80;68.90
43906;DHT22;29564;46.622;13.818;2022-07-23T01:31:25;24.70;68.60
43906;DHT22;29564;46.622;13.818;2022-07-23T01:32:26;24.80;71.20
43906;DHT22;29564;46.622;13.818;2022-07-23T01:33:27;24.80;68.80
43906;DHT22;29564;46.622;13.818;2022-07-23T01:34:28;24.70;69.70
43906;DHT22;29564;46.622;13.818;2022-07-23T01:35:29;24.70;68.50
43906;DHT22;29564;46.622;13.818;2022-07-23T01:36:30;24.50;68.30
43906;DHT22;29564;46.622;13.818;2022-07-23T01:37:31;24.20;68.60
43906;DHT22;29564;46.622;13.818;2022-07-23T01:38:32;24.20;70.60
43906;DHT22;29564;46.622;13.818;2022-07-23T01:39:33;24.30;70.80
43906;DHT22;29564;46.622;13.818;2022-07-23T01:40:34;24.40;69.90
43906;DHT22;29564;46.622;13.818;2022-07-23T01:41:35;24.40;70.30
43906;DHT22;29564;46.622;13.818;2022-07-23T01:42:36;24.40;70.20
43906;DHT22;29564;46.622;13.818;2022-07-23T01:43:37;24.40;69.90
43906;DHT22;29564;46.622;13.818;2022-07-23T01:44:37;24.40;70.90
43906;DHT22;29564;46.622;13.818;2022-07-23T01:45:38;24.30;71.20
43906;DHT22;29564;46.622;13.818;2022-07-23T01:46:39;24.20;69.50
43906;DHT22;29564;46.622;13.818;2022-07-23T01:47:40;24.20;70.30
43906;DHT22;29564;46.622;13.818;2022-07-23T01:48:41;24.10;71.40
43906;DHT22;29564;46.622;13.818;2022-07-23T01:49:42;24.30;71.30
43906;DHT22;29564;46.622;13.818;2022-07-23T01:50:43;24.40;70.10
43906;DHT22;29564;46.622;13.818;2022-07-23T01:51:46;24.20;70.40
43906;DHT22;29564;46.622;13.818;2022-07-23T01:53:02;24.10;70.90
43906;DHT22;29564;46.622;13.818;2022-07-23T01:54:03;24.10;70.00
43906;DHT22;29564;46.622;13.818;2022-07-23T01:55:04;24.20;70.90
43906;DHT22;29564;46.622;13.818;2022-07-23T01:56:06;24.00;70.10
43906;DHT22;29564;46.622;13.818;2022-07-23T01:57:07;23.90;70.70
43906;DHT22;29564;46.622;13.818;2022-07-23T01:58:09;23.90;71.40
43906;DHT22;29564;46.622;13.818;2022-07-23T01:59:09;23.90;72.30
43906;DHT22;29564;46.622;13.818;2022-07-23T02:00:10;24.10;71.90
43906;DHT22;29564;46.622;13.818;2022-07-23T02:01:12;24.20;71.30
43906;DHT22;29564;46.622;13.818;2022-07-23T02:02:12;24.10;72.00
43906;DHT22;29564;46.622;13.818;2022-07-23T02:03:13;24.10;72.00
43906;DHT22;29564;46.622;13.818;2022-07-23T02:04:14;24.20;70.50
43906;DHT22;29564;46.622;13.818;2022-07-23T02:05:15;24.10;70.60
43906;DHT22;29564;46.622;13.818;2022-07-23T02:06:16;24.00;71.90
43906;DHT22;29564;46.622;13.818;2022-07-23T02:07:17;23.90;69.90
43906;DHT22;29564;46.622;13.818;2022-07-23T02:08:18;23.60;71.10
43906;DHT22;29564;46.622;13.818;2022-07-23T02:09:19;23.40;72.70
43906;DHT22;29564;46.622;13.818;2022-07-23T02:10:21;23.30;72.60
43906;DHT22;29564;46.622;13.818;2022-07-23T02:11:22;23.20;73.80
43906;DHT22;29564;46.622;13.818;2022-07-23T02:12:23;23.30;73.50
43906;DHT22;29564;46.622;13.818;2022-07-23T02:13:24;23.30;72.80
43906;DHT22;29564;46.622;13.818;2022-07-23T02:14:25;23.00;73.70
43906;DHT22;29564;46.622;13.818;2022-07-23T02:15:26;22.90;73.80
43906;DHT22;29564;46.622;13.818;2022-07-23T02:16:27;22.90;75.50
43906;DHT22;29564;46.622;13.818;2022-07-23T02:17:28;23.10;75.70
43906;DHT22;29564;46.622;13.818;2022-07-23T02:18:29;23.40;74.80
43906;DHT22;29564;46.622;13.818;2022-07-23T02:19:30;23.50;73.80
43906;DHT22;29564;46.622;13.818;2022-07-23T02:20:31;23.80;74.50
43906;DHT22;29564;46.622;13.818;2022-07-23T02:21:32;24.00;72.40
43906;DHT22;29564;46.622;13.818;2022-07-23T02:22:33;24.00;71.40
43906;DHT22;29564;46.622;13.818;2022-07-23T02:23:34;23.90;72.40
43906;DHT22;29564;46.622;13.818;2022-07-23T02:24:35;23.90;73.10
43906;DHT22;29564;46.622;13.818;2022-07-23T02:25:36;23.90;72.40
43906;DHT22;29564;46.622;13.818;2022-07-23T02:26:37;23.90;71.80
43906;DHT22;29564;46.622;13.818;2022-07-23T02:27:38;23.90;72.90
43906;DHT22;29564;46.622;13.818;2022-07-23T02:28:39;23.80;71.20
43906;DHT22;29564;46.622;13.818;2022-07-23T02:29:40;23.50;73.70
43906;DHT22;29564;46.622;13.818;2022-07-23T02:30:41;23.70;73.00
43906;DHT22;29564;46.622;13.818;2022-07-23T02:31:42;23.80;72.10
43906;DHT22;29564;46.622;13.818;2022-07-23T02:32:43;23.70;72.70
43906;DHT22;29564;46.622;13.818;2022-07-23T02:33:44;23.70;74.50
43906;DHT22;29564;46.622;13.818;2022-07-23T02:34:45;23.80;73.40
43906;DHT22;29564;46.622;13.818;2022-07-23T02:35:46;23.80;73.00
43906;DHT22;29564;46.622;13.818;2022-07-23T02:36:47;23.90;71.80
43906;DHT22;29564;46.622;13.818;2022-07-23T02:37:48;23.90;71.10
43906;DHT22;29564;46.622;13.818;2022-07-23T02:38:50;23.70;70.80
43906;DHT22;29564;46.622;13.818;2022-07-23T02:39:51;23.70;74.00
43906;DHT22;29564;46.622;13.818;2022-07-23T02:40:51;23.70;72.20
43906;DHT22;29564;46.622;13.818;2022-07-23T02:41:52;23.60;72.00
43906;DHT22;29564;46.622;13.818;2022-07-23T02:42:53;23.70;73.00
43906;DHT22;29564;46.622;13.818;2022-07-23T02:43:54;23.70;72.00
43906;DHT22;29564;46.622;13.818;2022-07-23T02:44:55;23.80;73.80
43906;DHT22;29564;46.622;13.818;2022-07-23T02:45:56;23.90;72.20
43906;DHT22;29564;46.622;13.818;2022-07-23T02:46:57;24.00;71.90
43906;DHT22;29564;46.622;13.818;2022-07-23T02:47:58;23.90;71.80
43906;DHT22;29564;46.622;13.818;2022-07-23T02:48:59;23.90;71.80
43906;DHT22;29564;46.622;13.818;2022-07-23T02:50:00;23.90;72.80
43906;DHT22;29564;46.622;13.818;2022-07-23T02:51:01;23.90;71.10
43906;DHT22;29564;46.622;13.818;2022-07-23T02:52:02;23.90;72.80
43906;DHT22;29564;46.622;13.818;2022-07-23T02:53:04;23.80;70.50
43906;DHT22;29564;46.622;13.818;2022-07-23T02:54:05;23.40;71.90
43906;DHT22;29564;46.622;13.818;2022-07-23T02:55:06;23.20;74.40
43906;DHT22;29564;46.622;13.818;2022-07-23T02:56:07;23.20;73.80
43906;DHT22;29564;46.622;13.818;2022-07-23T02:57:08;23.20;74.40
43906;DHT22;29564;46.622;13.818;2022-07-23T02:58:09;23.30;74.00
43906;DHT22;29564;46.622;13.818;2022-07-23T02:59:10;23.50;74.30
43906;DHT22;29564;46.622;13.818;2022-07-23T03:00:11;23.70;72.60
43906;DHT22;29564;46.622;13.818;2022-07-23T03:01:12;23.50;73.00
43906;DHT22;29564;46.622;13.818;2022-07-23T03:02:13;23.40;73.20
43906;DHT22;29564;46.622;13.818;2022-07-23T03:03:14;23.40;72.90
43906;DHT22;29564;46.622;13.818;2022-07-23T03:04:15;23.10;73.60
43906;DHT22;29564;46.622;13.818;2022-07-23T03:05:16;22.90;75.80
43906;DHT22;29564;46.622;13.818;2022-07-23T03:06:17;22.80;73.60
43906;DHT22;29564;46.622;13.818;2022-07-23T03:07:18;22.80;75.80
43906;DHT22;29564;46.622;13.818;2022-07-23T03:08:19;22.80;74.20
43906;DHT22;29564;46.622;13.818;2022-07-23T03:09:20;22.80;76.70
43906;DHT22;29564;46.622;13.818;2022-07-23T03:10:21;22.90;75.20
43906;DHT22;29564;46.622;13.818;2022-07-23T03:11:22;23.10;74.40
43906;DHT22;29564;46.622;13.818;2022-07-23T03:12:23;23.20;74.30
43906;DHT22;29564;46.622;13.818;2022-07-23T03:13:23;23.30;72.80
43906;DHT22;29564;46.622;13.818;2022-07-23T03:14:24;23.20;73.80
43906;DHT22;29564;46.622;13.818;2022-07-23T03:15:25;23.30;73.40
43906;DHT22;29564;46.622;13.818;2022-07-23T03:16:26;23.40;72.80
43906;DHT22;29564;46.622;13.818;2022-07-23T03:17:27;23.40;73.00
43906;DHT22;29564;46.622;13.818;2022-07-23T03:18:28;23.30;72.10
43906;DHT22;29564;46.622;13.818;2022-07-23T03:19:29;23.30;73.60
43906;DHT22;29564;46.622;13.818;2022-07-23T03:20:30;23.20;72.70
43906;DHT22;29564;46.622;13.818;2022-07-23T03:21:31;23.00;72.40
43906;DHT22;29564;46.622;13.818;2022-07-23T03:22:32;23.00;75.20
43906;DHT22;29564;46.622;13.818;2022-07-23T03:23:33;22.80;74.80
43906;DHT22;29564;46.622;13.818;2022-07-23T03:24:34;22.80;74.70
43906;DHT22;29564;46.622;13.818;2022-07-23T03:25:55;22.80;76.40
43906;DHT22;29564;46.622;13.818;2022-07-23T03:26:56;23.00;75.20
43906;DHT22;29564;46.622;13.818;2022-07-23T03:27:57;23.10;74.20
43906;DHT22;29564;46.622;13.818;2022-07-23T03:28:58;23.30;73.20
43906;DHT22;29564;46.622;13.818;2022-07-23T03:29:59;23.10;72.40
43906;DHT22;29564;46.622;13.818;2022-07-23T03:31:00;23.30;74.50
43906;DHT22;29564;46.622;13.818;2022-07-23T03:32:01;23.40;72.70
43906;DHT22;29564;46.622;13.818;2022-07-23T03:33:03;23.40;73.50
43906;DHT22;29564;46.622;13.818;2022-07-23T03:34:04;23.30;73.10
43906;DHT22;29564;46.622;13.818;2022-07-23T03:35:05;23.30;72.80
43906;DHT22;29564;46.622;13.818;2022-07-23T03:36:06;23.10;72.90
43906;DHT22;29564;46.622;13.818;2022-07-23T03:37:07;23.10;72.60
43906;DHT22;29564;46.622;13.818;2022-07-23T03:38:08;23.10;73.70
43906;DHT22;29564;46.622;13.818;2022-07-23T03:39:09;23.10;74.20
43906;DHT22;29564;46.622;13.818;2022-07-23T03:40:10;23.00;74.80
43906;DHT22;29564;46.622;13.818;2022-07-23T03:41:11;23.00;74.10
43906;DHT22;29564;46.622;13.818;2022-07-23T03:42:12;22.70;74.60
43906;DHT22;29564;46.622;13.818;2022-07-23T03:43:13;22.70;74.90
43906;DHT22;29564;46.622;13.818;2022-07-23T03:44:14;22.60;76.10
43906;DHT22;29564;46.622;13.818;2022-07-23T03:45:15;22.60;76.70
43906;DHT22;29564;46.622;13.818;2022-07-23T03:46:16;22.90;75.70
43906;DHT22;29564;46.622;13.818;2022-07-23T03:47:17;23.10;75.40
43906;DHT22;29564;46.622;13.818;2022-07-23T03:48:22;23.10;74.00
43906;DHT22;29564;46.622;13.818;2022-07-23T03:49:23;23.00;73.90
43906;DHT22;29564;46.622;13.818;2022-07-23T03:50:24;23.10;74.60
43906;DHT22;29564;46.622;13.818;2022-07-23T03:51:25;23.10;75.30
43906;DHT22;29564;46.622;13.818;2022-07-23T03:52:26;23.20;74.20
43906;DHT22;29564;46.622;13.818;2022-07-23T03:53:27;23.20;73.80
43906;DHT22;29564;46.622;13.818;2022-07-23T03:54:28;23.10;73.60
43906;DHT22;29564;46.622;13.818;2022-07-23T03:55:29;22.90;75.10
43906;DHT22;29564;46.622;13.818;2022-07-23T03:56:30;22.90;75.00
43906;DHT22;29564;46.622;13.818;2022-07-23T03:57:31;22.80;76.60
43906;DHT22;29564;46.622;13.818;2022-07-23T03:58:32;23.00;75.80
43906;DHT22;29564;46.622;13.818;2022-07-23T03:59:33;23.20;74.50
43906;DHT22;29564;46.622;13.818;2022-07-23T04:00:34;23.20;73.40
43906;DHT22;29564;46.622;13.818;2022-07-23T04:01:35;23.30;74.00
43906;DHT22;29564;46.622;13.818;2022-07-23T04:02:36;23.20;74.40
43906;DHT22;29564;46.622;13.818;2022-07-23T04:03:37;23.40;74.30
43906;DHT22;29564;46.622;13.818;2022-07-23T04:04:38;23.30;71.30
43906;DHT22;29564;46.622;13.818;2022-07-23T04:05:39;23.30;73.30
43906;DHT22;29564;46.622;13.818;2022-07-23T04:06:40;23.30;71.40
43906;DHT22;29564;46.622;13.818;2022-07-23T04:07:41;23.10;72.90
43906;DHT22;29564;46.622;13.818;2022-07-23T04:08:42;23.20;72.60
43906;DHT22;29564;46.622;13.818;2022-07-23T04:09:43;23.20;72.20
43906;DHT22;29564;46.622;13.818;2022-07-23T04:10:44;23.20;73.60
43906;DHT22;29564;46.622;13.818;2022-07-23T04:11:45;23.10;73.00
43906;DHT22;29564;46.622;13.818;2022-07-23T04:12:46;23.00;73.20
43906;DHT22;29564;46.622;13.818;2022-07-23T04:13:47;23.10;74.90
43906;DHT22;29564;46.622;13.818;2022-07-23T04:14:48;23.00;72.00
43906;DHT22;29564;46.622;13.818;2022-07-23T04:15:49;23.00;73.70
43906;DHT22;29564;46.622;13.818;2022-07-23T04:16:51;22.90;73.30
43906;DHT22;29564;46.622;13.818;2022-07-23T04:17:52;22.90;75.70
43906;DHT22;29564;46.622;13.818;2022-07-23T04:18:53;23.00;71.90
43906;DHT22;29564;46.622;13.818;2022-07-23T04:19:54;23.00;74.70
43906;DHT22;29564;46.622;13.818;2022-07-23T04:20:55;23.10;73.20
43906;DHT22;29564;46.622;13.818;2022-07-23T04:21:56;23.10;72.40
43906;DHT22;29564;46.622;13.818;2022-07-23T04:22:57;22.90;72.40
43906;DHT22;29564;46.622;13.818;2022-07-23T04:23:58;22.70;75.10
43906;DHT22;29564;46.622;13.818;2022-07-23T04:24:59;22.50;76.80
43906;DHT22;29564;46.622;13.818;2022-07-23T04:25:59;22.70;76.00
43906;DHT22;29564;46.622;13.818;2022-07-23T04:27:01;22.80;75.40
43906;DHT22;29564;46.622;13.818;2022-07-23T04:28:02;22.80;76.20
43906;DHT22;29564;46.622;13.818;2022-07-23T04:29:03;22.80;75.50
43906;DHT22;29564;46.622;13.818;2022-07-23T04:30:04;22.70;76.30
43906;DHT22;29564;46.622;13.818;2022-07-23T04:31:05;22.80;76.20
43906;DHT22;29564;46.622;13.818;2022-07-23T04:32:06;23.00;75.20
43906;DHT22;29564;46.622;13.818;2022-07-23T04:33:07;23.20;76.10
43906;DHT22;29564;46.622;13.818;2022-07-23T04:34:08;23.10;73.90
43906;DHT22;29564;46.622;13.818;2022-07-23T04:35:09;23.10;74.30
43906;DHT22;29564;46.622;13.818;2022-07-23T04:36:10;23.20;75.30
43906;DHT22;29564;46.622;13.818;2022-07-23T04:37:11;23.20;74.60
43906;DHT22;29564;46.622;13.818;2022-07-23T04:38:12;23.10;74.50
43906;DHT22;29564;46.622;13.818;2022-07-23T04:39:13;23.10;75.50
43906;DHT22;29564;46.622;13.818;2022-07-23T04:40:14;23.10;75.90
43906;DHT22;29564;46.622;13.818;2022-07-23T04:41:15;23.10;75.90
43906;DHT22;29564;46.622;13.818;2022-07-23T04:42:15;23.20;75.60
43906;DHT22;29564;46.622;13.818;2022-07-23T04:43:16;23.20;76.30
43906;DHT22;29564;46.622;13.818;2022-07-23T04:44:17;23.20;75.90
43906;DHT22;29564;46.622;13.818;2022-07-23T04:45:18;23.20;74.90
43906;DHT22;29564;46.622;13.818;2022-07-23T04:46:19;23.10;75.50
43906;DHT22;29564;46.622;13.818;2022-07-23T04:47:20;23.20;76.20
43906;DHT22;29564;46.622;13.818;2022-07-23T04:48:21;23.30;75.30
43906;DHT22;29564;46.622;13.818;2022-07-23T04:49:22;23.30;74.40
43906;DHT22;29564;46.622;13.818;2022-07-23T04:50:23;23.30;75.20
43906;DHT22;29564;46.622;13.818;2022-07-23T04:51:24;23.30;74.80
43906;DHT22;29564;46.622;13.818;2022-07-23T04:52:25;23.00;75.50
43906;DHT22;29564;46.622;13.818;2022-07-23T04:53:26;23.10;76.90
43906;DHT22;29564;46.622;13.818;2022-07-23T04:54:27;23.00;76.10
43906;DHT22;29564;46.622;13.818;2022-07-23T04:55:28;23.20;79.40
43906;DHT22;29564;46.622;13.818;2022-07-23T04:56:29;23.30;77.00
43906;DHT22;29564;46.622;13.818;2022-07-23T04:57:30;23.30;75.00
43906;DHT22;29564;46.622;13.818;2022-07-23T04:58:31;23.30;76.00
43906;DHT22;29564;46.622;13.818;2022-07-23T04:59:32;23.40;76.30
43906;DHT22;29564;46.622;13.818;2022-07-23T05:00:33;23.40;77.60
43906;DHT22;29564;46.622;13.818;2022-07-23T05:01:34;23.40;75.40
43906;DHT22;29564;46.622;13.818;2022-07-23T05:02:35;23.20;75.40
43906;DHT22;29564;46.622;13.818;2022-07-23T05:03:36;23.20;77.60
43906;DHT22;29564;46.622;13.818;2022-07-23T05:04:37;23.30;77.60
43906;DHT22;29564;46.622;13.818;2022-07-23T05:05:39;23.30;77.00
43906;DHT22;29564;46.622;13.818;2022-07-23T05:06:40;23.30;76.40
43906;DHT22;29564;46.622;13.818;2022-07-23T05:07:41;23.20;77.50
43906;DHT22;29564;46.622;13.818;2022-07-23T05:08:42;23.20;76.40
43906;DHT22;29564;46.622;13.818;2022-07-23T05:09:43;23.30;78.60
43906;DHT22;29564;46.622;13.818;2022-07-23T05:10:44;23.40;76.40
43906;DHT22;29564;46.622;13.818;2022-07-23T05:11:44;23.40;77.60
43906;DHT22;29564;46.622;13.818;2022-07-23T05:12:45;23.40;76.00
43906;DHT22;29564;46.622;13.818;2022-07-23T05:13:46;23.50;77.70
43906;DHT22;29564;46.622;13.818;2022-07-23T05:14:47;23.70;78.20
43906;DHT22;29564;46.622;13.818;2022-07-23T05:15:48;23.80;78.10
43906;DHT22;29564;46.622;13.818;2022-07-23T05:16:49;23.80;76.50
43906;DHT22;29564;46.622;13.818;2022-07-23T05:17:50;23.80;77.30
43906;DHT22;29564;46.622;13.818;2022-07-23T05:18:51;23.80;76.30
43906;DHT22;29564;46.622;13.818;2022-07-23T05:19:52;23.70;77.20
43906;DHT22;29564;46.622;13.818;2022-07-23T05:20:53;23.70;77.00
43906;DHT22;29564;46.622;13.818;2022-07-23T05:21:54;23.70;78.00
43906;DHT22;29564;46.622;13.818;2022-07-23T05:22:54;23.90;79.60
43906;DHT22;29564;46.622;13.818;2022-07-23T05:23:55;23.90;77.10
43906;DHT22;29564;46.622;13.818;2022-07-23T05:24:56;23.90;79.20
43906;DHT22;29564;46.622;13.818;2022-07-23T05:25:57;24.00;78.00
43906;DHT22;29564;46.622;13.818;2022-07-23T05:26:58;23.90;77.90
43906;DHT22;29564;46.622;13.818;2022-07-23T05:27:59;24.00;77.80
43906;DHT22;29564;46.622;13.818;2022-07-23T05:29:00;24.10;78.90
43906;DHT22;29564;46.622;13.818;2022-07-23T05:30:01;24.20;77.80
43906;DHT22;29564;46.622;13.818;2022-07-23T05:31:02;24.10;79.90
43906;DHT22;29564;46.622;13.818;2022-07-23T05:32:04;24.20;80.90
43906;DHT22;29564;46.622;13.818;2022-07-23T05:33:05;24.20;77.90
43906;DHT22;29564;46.622;13.818;2022-07-23T05:34:08;24.30;78.60
43906;DHT22;29564;46.622;13.818;2022-07-23T05:35:09;24.30;78.10
43906;DHT22;29564;46.622;13.818;2022-07-23T05:36:10;24.30;76.50
43906;DHT22;29564;46.622;13.818;2022-07-23T05:37:11;24.40;77.00
43906;DHT22;29564;46.622;13.818;2022-07-23T05:38:12;24.30;76.10
43906;DHT22;29564;46.622;13.818;2022-07-23T05:39:13;24.40;76.40
43906;DHT22;29564;46.622;13.818;2022-07-23T05:40:14;24.40;74.40
43906;DHT22;29564;46.622;13.818;2022-07-23T05:41:15;24.50;76.60
43906;DHT22;29564;46.622;13.818;2022-07-23T05:42:16;24.50;76.60
43906;DHT22;29564;46.622;13.818;2022-07-23T05:43:17;24.60;76.70
43906;DHT22;29564;46.622;13.818;2022-07-23T05:44:18;24.60;74.60
43906;DHT22;29564;46.622;13.818;2022-07-23T05:45:19;24.50;76.90
43906;DHT22;29564;46.622;13.818;2022-07-23T05:46:20;24.50;76.10
43906;DHT22;29564;46.622;13.818;2022-07-23T05:47:20;24.50;76.80
43906;DHT22;29564;46.622;13.818;2022-07-23T05:48:21;24.50;77.90
43906;DHT22;29564;46.622;13.818;2022-07-23T05:49:22;24.50;75.30
43906;DHT22;29564;46.622;13.818;2022-07-23T05:50:23;24.50;75.80
43906;DHT22;29564;46.622;13.818;2022-07-23T05:51:24;24.60;77.20
43906;DHT22;29564;46.622;13.818;2022-07-23T05:52:26;24.60;77.70
43906;DHT22;29564;46.622;13.818;2022-07-23T05:53:26;24.60;76.80
43906;DHT22;29564;46.622;13.818;2022-07-23T05:54:27;24.70;75.90
43906;DHT22;29564;46.622;13.818;2022-07-23T05:55:28;24.70;76.40
43906;DHT22;29564;46.622;13.818;2022-07-23T05:56:32;24.70;75.40
43906;DHT22;29564;46.622;13.818;2022-07-23T05:57:33;24.70;75.90
43906;DHT22;29564;46.622;13.818;2022-07-23T05:58:34;24.70;72.50
43906;DHT22;29564;46.622;13.818;2022-07-23T05:59:35;24.70;71.10
43906;DHT22;29564;46.622;13.818;2022-07-23T06:00:36;24.70;71.80
43906;DHT22;29564;46.622;13.818;2022-07-23T06:01:37;24.70;73.30
43906;DHT22;29564;46.622;13.818;2022-07-23T06:02:38;24.70;74.10
43906;DHT22;29564;46.622;13.818;2022-07-23T06:03:40;24.70;76.90
43906;DHT22;29564;46.622;13.818;2022-07-23T06:04:41;24.70;76.80
43906;DHT22;29564;46.622;13.818;2022-07-23T06:05:42;24.80;76.10
43906;DHT22;29564;46.622;13.818;2022-07-23T06:06:43;24.80;73.30
43906;DHT22;29564;46.622;13.818;2022-07-23T06:07:44;24.70;77.10
43906;DHT22;29564;46.622;13.818;2022-07-23T06:08:45;24.70;75.30
43906;DHT22;29564;46.622;13.818;2022-07-23T06:09:46;24.60;74.60
43906;DHT22;29564;46.622;13.818;2022-07-23T06:10:49;24.60;75.80
43906;DHT22;29564;46.622;13.818;2022-07-23T06:11:50;24.60;75.20
43906;DHT22;29564;46.622;13.818;2022-07-23T06:12:51;24.70;76.00
43906;DHT22;29564;46.622;13.818;2022-07-23T06:13:52;24.70;77.90
43906;DHT22;29564;46.622;13.818;2022-07-23T06:14:53;24.70;78.90
43906;DHT22;29564;46.622;13.818;2022-07-23T06:15:54;24.70;76.80
43906;DHT22;29564;46.622;13.818;2022-07-23T06:16:55;24.70;78.70
43906;DHT22;29564;46.622;13.818;2022-07-23T06:17:56;24.80;79.00
43906;DHT22;29564;46.622;13.818;2022-07-23T06:18:56;24.80;77.30
43906;DHT22;29564;46.622;13.818;2022-07-23T06:19:57;24.80;78.90